sensor_id;sensor_type;location;lat;lon;timestamp;P1;durP1;ratioP1;P2;durP2;ratioP2
21661;SDS011;10992;48.170;8.596;2023-03-20T00:01:26;1.58;;;1.30;;
21661;SDS011;10992;48.170;8.596;2023-03-20T00:03:55;2.65;;;1.20;;
21661;SDS011;10992;48.170;8.596;2023-03-20T00:06:24;1.55;;;1.20;;
21661;SDS011;10992;48.170;8.596;2023-03-20T00:08:54;1.73;;;1.13;;
21661;SDS011;10992;48.170;8.596;2023-03-20T00:13:57;1.23;;;1.13;;
21661;SDS011;10992;48.170;8.596;2023-03-20T00:16:37;1.52;;;1.20;;
21661;SDS011;10992;48.170;8.596;2023-03-20T00:19:09;1.27;;;1.15;;
21661;SDS011;10992;48.170;8.596;2023-03-20T00:21:42;2.60;;;1.30;;
21661;SDS011;10992;48.170;8.596;2023-03-20T00:24:11;1.98;;;1.20;;
21661;SDS011;10992;48.170;8.596;2023-03-20T00:26:38;2.35;;;1.30;;
21661;SDS011;10992;48.170;8.596;2023-03-20T00:29:06;2.13;;;1.30;;
21661;SDS011;10992;48.170;8.596;2023-03-20T00:31:38;1.80;;;1.35;;
21661;SDS011;10992;48.170;8.596;2023-03-20T00:34:09;1.40;;;1.30;;
21661;SDS011;10992;48.170;8.596;2023-03-20T00:36:39;3.78;;;1.33;;
21661;SDS011;10992;48.170;8.596;2023-03-20T00:39:08;2.22;;;1.85;;
21661;SDS011;10992;48.170;8.596;2023-03-20T00:44:23;1.67;;;1.58;;
21661;SDS011;10992;48.170;8.596;2023-03-20T00:46:54;1.98;;;1.70;;
21661;SDS011;10992;48.170;8.596;2023-03-20T00:49:31;3.22;;;1.50;;
21661;SDS011;10992;48.170;8.596;2023-03-20T00:52:00;1.80;;;1.58;;
21661;SDS011;10992;48.170;8.596;2023-03-20T00:54:28;1.55;;;1.45;;
21661;SDS011;10992;48.170;8.596;2023-03-20T00:57:02;1.42;;;1.30;;
21661;SDS011;10992;48.170;8.596;2023-03-20T00:59:34;1.83;;;1.40;;
21661;SDS011;10992;48.170;8.596;2023-03-20T01:02:03;1.50;;;1.40;;
21661;SDS011;10992;48.170;8.596;2023-03-20T01:04:35;1.83;;;1.60;;
21661;SDS011;10992;48.170;8.596;2023-03-20T01:07:05;1.65;;;1.50;;
21661;SDS011;10992;48.170;8.596;2023-03-20T01:09:34;1.77;;;1.52;;
21661;SDS011;10992;48.170;8.596;2023-03-20T01:12:01;1.35;;;1.25;;
21661;SDS011;10992;48.170;8.596;2023-03-20T01:14:29;2.55;;;1.30;;
21661;SDS011;10992;48.170;8.596;2023-03-20T01:16:57;1.88;;;1.50;;
21661;SDS011;10992;48.170;8.596;2023-03-20T01:19:24;1.83;;;1.38;;
21661;SDS011;10992;48.170;8.596;2023-03-20T01:21:51;2.40;;;1.50;;
21661;SDS011;10992;48.170;8.596;2023-03-20T01:24:18;2.25;;;1.20;;
21661;SDS011;10992;48.170;8.596;2023-03-20T01:26:45;1.40;;;1.17;;
21661;SDS011;10992;48.170;8.596;2023-03-20T01:29:20;1.23;;;1.10;;
21661;SDS011;10992;48.170;8.596;2023-03-20T01:31:49;3.08;;;1.23;;
21661;SDS011;10992;48.170;8.596;2023-03-20T01:34:19;1.55;;;1.00;;
21661;SDS011;10992;48.170;8.596;2023-03-20T01:36:50;1.27;;;1.17;;
21661;SDS011;10992;48.170;8.596;2023-03-20T01:39:19;1.65;;;1.23;;
21661;SDS011;10992;48.170;8.596;2023-03-20T01:41:50;1.45;;;1.10;;
21661;SDS011;10992;48.170;8.596;2023-03-20T01:44:21;3.42;;;1.13;;
21661;SDS011;10992;48.170;8.596;2023-03-20T01:46:54;1.67;;;1.35;;
21661;SDS011;10992;48.170;8.596;2023-03-20T01:51:51;4.07;;;1.85;;
21661;SDS011;10992;48.170;8.596;2023-03-20T01:54:20;3.83;;;2.00;;
21661;SDS011;10992;48.170;8.596;2023-03-20T01:57:13;2.85;;;1.90;;
21661;SDS011;10992;48.170;8.596;2023-03-20T01:59:48;3.92;;;2.15;;
21661;SDS011;10992;48.170;8.596;2023-03-20T02:02:18;2.85;;;2.03;;
21661;SDS011;10992;48.170;8.596;2023-03-20T02:04:51;2.20;;;1.80;;
21661;SDS011;10992;48.170;8.596;2023-03-20T02:07:21;2.25;;;1.80;;
21661;SDS011;10992;48.170;8.596;2023-03-20T02:09:58;1.85;;;1.55;;
21661;SDS011;10992;48.170;8.596;2023-03-20T02:12:36;2.03;;;1.60;;
21661;SDS011;10992;48.170;8.596;2023-03-20T02:15:06;2.17;;;1.73;;
21661;SDS011;10992;48.170;8.596;2023-03-20T02:17:55;2.22;;;1.63;;
21661;SDS011;10992;48.170;8.596;2023-03-20T02:23:11;2.45;;;1.65;;
21661;SDS011;10992;48.170;8.596;2023-03-20T02:26:00;2.45;;;1.70;;
21661;SDS011;10992;48.170;8.596;2023-03-20T02:39:55;2.10;;;1.90;;
21661;SDS011;10992;48.170;8.596;2023-03-20T02:45:16;2.38;;;2.08;;
21661;SDS011;10992;48.170;8.596;2023-03-20T02:50:55;2.58;;;2.10;;
21661;SDS011;10992;48.170;8.596;2023-03-20T02:56:31;2.30;;;1.90;;
21661;SDS011;10992;48.170;8.596;2023-03-20T02:59:19;2.78;;;1.90;;
21661;SDS011;10992;48.170;8.596;2023-03-20T03:02:11;2.40;;;1.52;;
21661;SDS011;10992;48.170;8.596;2023-03-20T03:04:44;2.65;;;2.03;;
21661;SDS011;10992;48.170;8.596;2023-03-20T03:07:16;2.45;;;2.00;;
21661;SDS011;10992;48.170;8.596;2023-03-20T03:12:38;2.17;;;1.83;;
21661;SDS011;10992;48.170;8.596;2023-03-20T03:15:13;2.72;;;1.80;;
21661;SDS011;10992;48.170;8.596;2023-03-20T03:17:53;2.50;;;1.85;;
21661;SDS011;10992;48.170;8.596;2023-03-20T03:20:28;3.08;;;2.17;;
21661;SDS011;10992;48.170;8.596;2023-03-20T03:22:58;2.10;;;1.73;;
21661;SDS011;10992;48.170;8.596;2023-03-20T03:25:27;2.38;;;1.88;;
21661;SDS011;10992;48.170;8.596;2023-03-20T03:28:03;3.17;;;1.50;;
21661;SDS011;10992;48.170;8.596;2023-03-20T03:30:42;2.72;;;2.08;;
21661;SDS011;10992;48.170;8.596;2023-03-20T03:35:44;3.50;;;2.38;;
21661;SDS011;10992;48.170;8.596;2023-03-20T03:43:49;2.88;;;2.63;;
21661;SDS011;10992;48.170;8.596;2023-03-20T03:46:33;2.90;;;2.60;;
21661;SDS011;10992;48.170;8.596;2023-03-20T03:49:03;3.78;;;3.00;;
21661;SDS011;10992;48.170;8.596;2023-03-20T03:51:35;2.50;;;2.28;;
21661;SDS011;10992;48.170;8.596;2023-03-20T03:54:10;4.88;;;3.10;;
21661;SDS011;10992;48.170;8.596;2023-03-20T03:57:07;3.25;;;2.72;;
21661;SDS011;10992;48.170;8.596;2023-03-20T03:59:42;2.85;;;2.65;;
21661;SDS011;10992;48.170;8.596;2023-03-20T04:02:15;3.15;;;2.72;;
21661;SDS011;10992;48.170;8.596;2023-03-20T04:04:45;4.68;;;2.75;;
21661;SDS011;10992;48.170;8.596;2023-03-20T04:07:16;2.78;;;2.53;;
21661;SDS011;10992;48.170;8.596;2023-03-20T04:09:44;4.05;;;2.60;;
21661;SDS011;10992;48.170;8.596;2023-03-20T04:12:45;3.83;;;2.33;;
21661;SDS011;10992;48.170;8.596;2023-03-20T04:15:08;3.20;;;2.42;;
21661;SDS011;10992;48.170;8.596;2023-03-20T04:17:37;2.67;;;2.42;;
21661;SDS011;10992;48.170;8.596;2023-03-20T04:20:06;2.75;;;2.20;;
21661;SDS011;10992;48.170;8.596;2023-03-20T04:22:34;3.22;;;2.15;;
21661;SDS011;10992;48.170;8.596;2023-03-20T04:25:05;3.45;;;2.50;;
21661;SDS011;10992;48.170;8.596;2023-03-20T04:27:34;2.75;;;2.28;;
21661;SDS011;10992;48.170;8.596;2023-03-20T04:30:09;2.85;;;2.65;;
21661;SDS011;10992;48.170;8.596;2023-03-20T04:32:55;3.33;;;2.58;;
21661;SDS011;10992;48.170;8.596;2023-03-20T04:35:43;3.90;;;2.38;;
21661;SDS011;10992;48.170;8.596;2023-03-20T04:38:12;3.08;;;2.35;;
21661;SDS011;10992;48.170;8.596;2023-03-20T04:40:40;2.53;;;2.20;;
21661;SDS011;10992;48.170;8.596;2023-03-20T04:43:07;6.75;;;2.78;;
21661;SDS011;10992;48.170;8.596;2023-03-20T04:45:34;3.60;;;2.92;;
21661;SDS011;10992;48.170;8.596;2023-03-20T04:48:05;3.13;;;2.72;;
21661;SDS011;10992;48.170;8.596;2023-03-20T04:50:34;3.85;;;3.10;;
21661;SDS011;10992;48.170;8.596;2023-03-20T04:53:01;4.68;;;3.25;;
21661;SDS011;10992;48.170;8.596;2023-03-20T04:55:29;5.28;;;3.30;;
21661;SDS011;10992;48.170;8.596;2023-03-20T04:57:56;5.40;;;3.53;;
21661;SDS011;10992;48.170;8.596;2023-03-20T05:00:25;3.80;;;3.28;;
21661;SDS011;10992;48.170;8.596;2023-03-20T05:02:51;3.40;;;3.10;;
21661;SDS011;10992;48.170;8.596;2023-03-20T05:05:18;4.00;;;3.00;;
21661;SDS011;10992;48.170;8.596;2023-03-20T05:07:46;4.43;;;3.47;;
21661;SDS011;10992;48.170;8.596;2023-03-20T05:10:20;3.55;;;2.78;;
21661;SDS011;10992;48.170;8.596;2023-03-20T05:12:56;5.93;;;3.00;;
21661;SDS011;10992;48.170;8.596;2023-03-20T05:15:30;3.50;;;2.95;;
21661;SDS011;10992;48.170;8.596;2023-03-20T05:18:06;3.97;;;3.03;;
21661;SDS011;10992;48.170;8.596;2023-03-20T05:20:48;4.57;;;3.70;;
21661;SDS011;10992;48.170;8.596;2023-03-20T05:23:51;7.03;;;4.93;;
21661;SDS011;10992;48.170;8.596;2023-03-20T05:26:33;15.55;;;7.85;;
21661;SDS011;10992;48.170;8.596;2023-03-20T05:29:20;13.90;;;8.95;;
21661;SDS011;10992;48.170;8.596;2023-03-20T05:32:06;6.85;;;4.38;;
21661;SDS011;10992;48.170;8.596;2023-03-20T05:34:44;5.78;;;4.22;;
21661;SDS011;10992;48.170;8.596;2023-03-20T05:37:19;5.40;;;2.83;;
21661;SDS011;10992;48.170;8.596;2023-03-20T05:39:55;3.95;;;2.70;;
21661;SDS011;10992;48.170;8.596;2023-03-20T05:42:43;5.22;;;2.92;;
21661;SDS011;10992;48.170;8.596;2023-03-20T05:45:40;4.28;;;3.08;;
21661;SDS011;10992;48.170;8.596;2023-03-20T05:48:26;4.00;;;2.80;;
21661;SDS011;10992;48.170;8.596;2023-03-20T05:51:11;4.38;;;2.65;;
21661;SDS011;10992;48.170;8.596;2023-03-20T05:54:16;2.92;;;2.60;;
21661;SDS011;10992;48.170;8.596;2023-03-20T05:56:58;2.90;;;2.50;;
21661;SDS011;10992;48.170;8.596;2023-03-20T05:59:55;3.53;;;2.38;;
21661;SDS011;10992;48.170;8.596;2023-03-20T06:02:42;2.83;;;2.53;;
21661;SDS011;10992;48.170;8.596;2023-03-20T06:05:34;2.78;;;2.30;;
21661;SDS011;10992;48.170;8.596;2023-03-20T06:08:02;6.78;;;3.22;;
21661;SDS011;10992;48.170;8.596;2023-03-20T06:10:30;5.07;;;3.33;;
21661;SDS011;10992;48.170;8.596;2023-03-20T06:12:57;4.78;;;3.78;;
21661;SDS011;10992;48.170;8.596;2023-03-20T06:15:27;5.32;;;3.10;;
21661;SDS011;10992;48.170;8.596;2023-03-20T06:18:02;5.20;;;3.40;;
21661;SDS011;10992;48.170;8.596;2023-03-20T06:20:30;3.85;;;3.15;;
21661;SDS011;10992;48.170;8.596;2023-03-20T06:23:00;3.28;;;2.60;;
21661;SDS011;10992;48.170;8.596;2023-03-20T06:25:28;3.75;;;2.63;;
21661;SDS011;10992;48.170;8.596;2023-03-20T06:27:55;4.00;;;3.10;;
21661;SDS011;10992;48.170;8.596;2023-03-20T06:30:23;5.18;;;3.80;;
21661;SDS011;10992;48.170;8.596;2023-03-20T06:32:50;5.03;;;3.90;;
21661;SDS011;10992;48.170;8.596;2023-03-20T06:35:19;4.75;;;4.25;;
21661;SDS011;10992;48.170;8.596;2023-03-20T06:37:49;5.15;;;4.45;;
21661;SDS011;10992;48.170;8.596;2023-03-20T06:40:21;4.50;;;4.05;;
21661;SDS011;10992;48.170;8.596;2023-03-20T06:42:48;3.55;;;3.25;;
21661;SDS011;10992;48.170;8.596;2023-03-20T06:45:16;3.70;;;2.88;;
21661;SDS011;10992;48.170;8.596;2023-03-20T06:47:44;5.25;;;2.50;;
21661;SDS011;10992;48.170;8.596;2023-03-20T06:50:12;3.58;;;2.90;;
21661;SDS011;10992;48.170;8.596;2023-03-20T06:52:39;3.28;;;2.53;;
21661;SDS011;10992;48.170;8.596;2023-03-20T06:55:24;2.40;;;2.00;;
21661;SDS011;10992;48.170;8.596;2023-03-20T06:57:54;2.85;;;2.47;;
21661;SDS011;10992;48.170;8.596;2023-03-20T07:00:29;2.95;;;1.92;;
21661;SDS011;10992;48.170;8.596;2023-03-20T07:02:56;2.42;;;2.22;;
21661;SDS011;10992;48.170;8.596;2023-03-20T07:05:26;5.28;;;2.67;;
21661;SDS011;10992;48.170;8.596;2023-03-20T07:07:57;3.55;;;2.58;;
21661;SDS011;10992;48.170;8.596;2023-03-20T07:10:25;4.90;;;3.42;;
21661;SDS011;10992;48.170;8.596;2023-03-20T07:12:54;4.63;;;3.10;;
21661;SDS011;10992;48.170;8.596;2023-03-20T07:15:21;2.85;;;2.42;;
21661;SDS011;10992;48.170;8.596;2023-03-20T07:17:48;4.00;;;2.70;;
21661;SDS011;10992;48.170;8.596;2023-03-20T07:20:15;3.40;;;3.10;;
21661;SDS011;10992;48.170;8.596;2023-03-20T07:22:44;3.50;;;2.92;;
21661;SDS011;10992;48.170;8.596;2023-03-20T07:25:24;3.40;;;2.70;;
21661;SDS011;10992;48.170;8.596;2023-03-20T07:28:07;3.42;;;2.28;;
21661;SDS011;10992;48.170;8.596;2023-03-20T07:30:38;2.72;;;2.25;;
21661;SDS011;10992;48.170;8.596;2023-03-20T07:33:06;5.75;;;3.92;;
21661;SDS011;10992;48.170;8.596;2023-03-20T07:35:34;9.43;;;5.95;;
21661;SDS011;10992;48.170;8.596;2023-03-20T07:38:02;8.88;;;5.00;;
21661;SDS011;10992;48.170;8.596;2023-03-20T07:40:30;7.97;;;4.30;;
21661;SDS011;10992;48.170;8.596;2023-03-20T07:43:02;5.20;;;3.50;;
21661;SDS011;10992;48.170;8.596;2023-03-20T07:45:47;4.93;;;2.35;;
21661;SDS011;10992;48.170;8.596;2023-03-20T07:48:17;3.80;;;2.10;;
21661;SDS011;10992;48.170;8.596;2023-03-20T07:50:44;2.05;;;1.80;;
21661;SDS011;10992;48.170;8.596;2023-03-20T07:53:11;2.15;;;1.55;;
21661;SDS011;10992;48.170;8.596;2023-03-20T07:55:39;6.65;;;3.83;;
21661;SDS011;10992;48.170;8.596;2023-03-20T07:58:08;8.23;;;4.57;;
21661;SDS011;10992;48.170;8.596;2023-03-20T08:00:35;10.88;;;6.65;;
21661;SDS011;10992;48.170;8.596;2023-03-20T08:03:06;23.90;;;13.50;;
21661;SDS011;10992;48.170;8.596;2023-03-20T08:05:33;10.25;;;5.90;;
21661;SDS011;10992;48.170;8.596;2023-03-20T08:08:01;5.72;;;3.45;;
21661;SDS011;10992;48.170;8.596;2023-03-20T08:10:28;3.85;;;2.50;;
21661;SDS011;10992;48.170;8.596;2023-03-20T08:12:56;5.45;;;3.00;;
21661;SDS011;10992;48.170;8.596;2023-03-20T08:15:22;4.78;;;2.90;;
21661;SDS011;10992;48.170;8.596;2023-03-20T08:17:49;5.15;;;2.08;;
21661;SDS011;10992;48.170;8.596;2023-03-20T08:20:16;4.93;;;2.47;;
21661;SDS011;10992;48.170;8.596;2023-03-20T08:22:45;5.15;;;2.92;;
21661;SDS011;10992;48.170;8.596;2023-03-20T08:25:13;6.45;;;3.00;;
21661;SDS011;10992;48.170;8.596;2023-03-20T08:27:40;6.75;;;3.75;;
21661;SDS011;10992;48.170;8.596;2023-03-20T08:30:07;8.02;;;4.07;;
21661;SDS011;10992;48.170;8.596;2023-03-20T08:32:34;3.15;;;1.73;;
21661;SDS011;10992;48.170;8.596;2023-03-20T08:35:02;2.65;;;1.73;;
21661;SDS011;10992;48.170;8.596;2023-03-20T08:37:29;4.10;;;2.13;;
21661;SDS011;10992;48.170;8.596;2023-03-20T08:39:55;3.38;;;1.83;;
21661;SDS011;10992;48.170;8.596;2023-03-20T08:42:22;3.65;;;2.45;;
21661;SDS011;10992;48.170;8.596;2023-03-20T08:44:49;1.63;;;1.23;;
21661;SDS011;10992;48.170;8.596;2023-03-20T08:47:16;2.33;;;1.30;;
21661;SDS011;10992;48.170;8.596;2023-03-20T08:49:44;1.95;;;1.55;;
21661;SDS011;10992;48.170;8.596;2023-03-20T08:52:11;2.33;;;1.50;;
21661;SDS011;10992;48.170;8.596;2023-03-20T08:54:38;1.40;;;1.20;;
21661;SDS011;10992;48.170;8.596;2023-03-20T08:57:05;2.15;;;1.38;;
21661;SDS011;10992;48.170;8.596;2023-03-20T08:59:34;2.40;;;1.30;;
21661;SDS011;10992;48.170;8.596;2023-03-20T09:02:04;2.60;;;1.88;;
21661;SDS011;10992;48.170;8.596;2023-03-20T09:04:31;3.38;;;1.60;;
21661;SDS011;10992;48.170;8.596;2023-03-20T09:06:57;2.45;;;1.50;;
21661;SDS011;10992;48.170;8.596;2023-03-20T09:09:26;2.33;;;1.33;;
21661;SDS011;10992;48.170;8.596;2023-03-20T09:11:55;1.00;;;0.90;;
21661;SDS011;10992;48.170;8.596;2023-03-20T09:14:23;2.47;;;1.30;;
21661;SDS011;10992;48.170;8.596;2023-03-20T09:16:51;1.10;;;0.88;;
21661;SDS011;10992;48.170;8.596;2023-03-20T09:19:18;2.47;;;1.08;;
21661;SDS011;10992;48.170;8.596;2023-03-20T09:21:45;1.35;;;1.10;;
21661;SDS011;10992;48.170;8.596;2023-03-20T09:24:12;1.92;;;0.90;;
21661;SDS011;10992;48.170;8.596;2023-03-20T09:26:39;1.33;;;0.85;;
21661;SDS011;10992;48.170;8.596;2023-03-20T09:29:06;0.70;;;0.60;;
21661;SDS011;10992;48.170;8.596;2023-03-20T09:31:33;1.27;;;0.90;;
21661;SDS011;10992;48.170;8.596;2023-03-20T09:34:00;1.10;;;0.80;;
21661;SDS011;10992;48.170;8.596;2023-03-20T09:36:27;1.17;;;0.90;;
21661;SDS011;10992;48.170;8.596;2023-03-20T09:38:53;1.95;;;0.88;;
21661;SDS011;10992;48.170;8.596;2023-03-20T09:41:21;0.85;;;0.70;;
21661;SDS011;10992;48.170;8.596;2023-03-20T09:43:59;0.60;;;0.50;;
21661;SDS011;10992;48.170;8.596;2023-03-20T09:52:32;0.52;;;0.43;;
21661;SDS011;10992;48.170;8.596;2023-03-20T09:55:16;0.70;;;0.47;;
21661;SDS011;10992;48.170;8.596;2023-03-20T09:57:48;0.68;;;0.47;;
21661;SDS011;10992;48.170;8.596;2023-03-20T10:00:20;1.27;;;0.60;;
21661;SDS011;10992;48.170;8.596;2023-03-20T10:05:45;0.60;;;0.60;;
21661;SDS011;10992;48.170;8.596;2023-03-20T10:08:25;1.67;;;0.65;;
21661;SDS011;10992;48.170;8.596;2023-03-20T10:11:17;1.27;;;0.68;;
21661;SDS011;10992;48.170;8.596;2023-03-20T10:14:21;0.70;;;0.63;;
21661;SDS011;10992;48.170;8.596;2023-03-20T10:19:41;0.60;;;0.60;;
21661;SDS011;10992;48.170;8.596;2023-03-20T10:22:22;1.20;;;0.50;;
21661;SDS011;10992;48.170;8.596;2023-03-20T10:25:00;1.67;;;0.68;;
21661;SDS011;10992;48.170;8.596;2023-03-20T10:27:33;0.73;;;0.50;;
21661;SDS011;10992;48.170;8.596;2023-03-20T10:30:27;0.88;;;0.50;;
21661;SDS011;10992;48.170;8.596;2023-03-20T10:35:58;1.17;;;0.57;;
21661;SDS011;10992;48.170;8.596;2023-03-20T10:41:10;1.48;;;0.65;;
21661;SDS011;10992;48.170;8.596;2023-03-20T10:43:42;1.45;;;0.50;;
21661;SDS011;10992;48.170;8.596;2023-03-20T10:46:15;1.60;;;1.05;;
21661;SDS011;10992;48.170;8.596;2023-03-20T10:48:56;2.33;;;1.73;;
21661;SDS011;10992;48.170;8.596;2023-03-20T10:51:27;0.30;;;0.30;;
21661;SDS011;10992;48.170;8.596;2023-03-20T10:54:07;0.73;;;0.47;;
21661;SDS011;10992;48.170;8.596;2023-03-20T10:56:46;1.40;;;0.95;;
21661;SDS011;10992;48.170;8.596;2023-03-20T10:59:25;1.20;;;0.80;;
21661;SDS011;10992;48.170;8.596;2023-03-20T11:02:12;2.25;;;0.93;;
21661;SDS011;10992;48.170;8.596;2023-03-20T11:04:40;1.25;;;0.80;;
21661;SDS011;10992;48.170;8.596;2023-03-20T11:07:11;1.25;;;0.90;;
21661;SDS011;10992;48.170;8.596;2023-03-20T11:12:33;1.00;;;0.90;;
21661;SDS011;10992;48.170;8.596;2023-03-20T11:17:50;2.50;;;1.48;;
21661;SDS011;10992;48.170;8.596;2023-03-20T11:20:26;1.77;;;0.90;;
21661;SDS011;10992;48.170;8.596;2023-03-20T11:23:01;1.33;;;0.82;;
21661;SDS011;10992;48.170;8.596;2023-03-20T11:25:37;1.48;;;1.00;;
21661;SDS011;10992;48.170;8.596;2023-03-20T11:31:00;1.05;;;0.77;;
21661;SDS011;10992;48.170;8.596;2023-03-20T11:33:31;1.73;;;0.75;;
21661;SDS011;10992;48.170;8.596;2023-03-20T11:36:04;2.55;;;0.90;;
21661;SDS011;10992;48.170;8.596;2023-03-20T11:38:47;0.82;;;0.75;;
21661;SDS011;10992;48.170;8.596;2023-03-20T11:41:22;2.63;;;0.85;;
21661;SDS011;10992;48.170;8.596;2023-03-20T11:43:53;1.10;;;0.77;;
21661;SDS011;10992;48.170;8.596;2023-03-20T11:46:21;2.47;;;1.30;;
21661;SDS011;10992;48.170;8.596;2023-03-20T11:49:03;1.50;;;0.82;;
21661;SDS011;10992;48.170;8.596;2023-03-20T11:51:44;1.33;;;0.90;;
21661;SDS011;10992;48.170;8.596;2023-03-20T11:54:16;2.00;;;1.10;;
21661;SDS011;10992;48.170;8.596;2023-03-20T11:56:52;2.03;;;1.00;;
21661;SDS011;10992;48.170;8.596;2023-03-20T11:59:30;1.10;;;1.00;;
21661;SDS011;10992;48.170;8.596;2023-03-20T12:02:00;1.10;;;0.80;;
21661;SDS011;10992;48.170;8.596;2023-03-20T12:04:30;2.05;;;1.00;;
21661;SDS011;10992;48.170;8.596;2023-03-20T12:07:24;1.95;;;1.00;;
21661;SDS011;10992;48.170;8.596;2023-03-20T12:10:02;2.15;;;1.00;;
21661;SDS011;10992;48.170;8.596;2023-03-20T12:12:46;1.67;;;1.10;;
21661;SDS011;10992;48.170;8.596;2023-03-20T12:22:49;2.20;;;0.70;;
21661;SDS011;10992;48.170;8.596;2023-03-20T12:25:23;0.80;;;0.70;;
21661;SDS011;10992;48.170;8.596;2023-03-20T12:28:05;1.75;;;1.33;;
21661;SDS011;10992;48.170;8.596;2023-03-20T12:33:36;1.58;;;0.95;;
21661;SDS011;10992;48.170;8.596;2023-03-20T12:36:24;1.77;;;0.93;;
21661;SDS011;10992;48.170;8.596;2023-03-20T12:38:57;1.85;;;1.33;;
21661;SDS011;10992;48.170;8.596;2023-03-20T12:41:25;2.65;;;0.70;;
21661;SDS011;10992;48.170;8.596;2023-03-20T12:52:46;0.60;;;0.57;;
21661;SDS011;10992;48.170;8.596;2023-03-20T12:55:38;1.52;;;0.80;;
21661;SDS011;10992;48.170;8.596;2023-03-20T13:00:42;1.30;;;0.70;;
21661;SDS011;10992;48.170;8.596;2023-03-20T13:12:14;0.73;;;0.60;;
21661;SDS011;10992;48.170;8.596;2023-03-20T13:20:48;1.55;;;0.63;;
21661;SDS011;10992;48.170;8.596;2023-03-20T13:26:02;2.65;;;1.00;;
21661;SDS011;10992;48.170;8.596;2023-03-20T13:29:04;1.65;;;1.10;;
21661;SDS011;10992;48.170;8.596;2023-03-20T13:32:04;1.15;;;0.93;;
21661;SDS011;10992;48.170;8.596;2023-03-20T13:35:06;1.55;;;1.10;;
21661;SDS011;10992;48.170;8.596;2023-03-20T13:37:48;1.58;;;0.95;;
21661;SDS011;10992;48.170;8.596;2023-03-20T13:40:20;0.95;;;0.65;;
21661;SDS011;10992;48.170;8.596;2023-03-20T13:42:57;2.50;;;1.80;;
21661;SDS011;10992;48.170;8.596;2023-03-20T13:48:14;2.08;;;1.08;;
21661;SDS011;10992;48.170;8.596;2023-03-20T13:50:50;1.42;;;1.10;;
21661;SDS011;10992;48.170;8.596;2023-03-20T14:04:28;1.15;;;0.93;;
21661;SDS011;10992;48.170;8.596;2023-03-20T14:06:57;1.80;;;1.00;;
21661;SDS011;10992;48.170;8.596;2023-03-20T14:09:31;1.83;;;0.90;;
21661;SDS011;10992;48.170;8.596;2023-03-20T14:12:01;1.92;;;1.20;;
21661;SDS011;10992;48.170;8.596;2023-03-20T14:17:16;2.40;;;0.80;;
21661;SDS011;10992;48.170;8.596;2023-03-20T14:19:49;1.13;;;0.63;;
21661;SDS011;10992;48.170;8.596;2023-03-20T14:25:16;2.42;;;1.58;;
21661;SDS011;10992;48.170;8.596;2023-03-20T14:27:52;1.98;;;1.20;;
21661;SDS011;10992;48.170;8.596;2023-03-20T14:32:58;5.63;;;3.65;;
21661;SDS011;10992;48.170;8.596;2023-03-20T14:35:26;3.00;;;1.45;;
21661;SDS011;10992;48.170;8.596;2023-03-20T14:38:03;2.83;;;0.95;;
21661;SDS011;10992;48.170;8.596;2023-03-20T14:40:37;2.15;;;1.45;;
21661;SDS011;10992;48.170;8.596;2023-03-20T14:46:18;2.85;;;1.13;;
21661;SDS011;10992;48.170;8.596;2023-03-20T14:48:55;1.13;;;0.70;;
21661;SDS011;10992;48.170;8.596;2023-03-20T14:51:39;0.85;;;0.70;;
21661;SDS011;10992;48.170;8.596;2023-03-20T14:54:29;1.95;;;0.75;;
21661;SDS011;10992;48.170;8.596;2023-03-20T14:57:07;1.30;;;0.75;;
21661;SDS011;10992;48.170;8.596;2023-03-20T14:59:42;0.80;;;0.60;;
21661;SDS011;10992;48.170;8.596;2023-03-20T15:02:33;2.03;;;1.20;;
21661;SDS011;10992;48.170;8.596;2023-03-20T15:05:01;1.10;;;1.00;;
21661;SDS011;10992;48.170;8.596;2023-03-20T15:07:30;1.85;;;1.13;;
21661;SDS011;10992;48.170;8.596;2023-03-20T15:10:03;2.42;;;1.15;;
21661;SDS011;10992;48.170;8.596;2023-03-20T15:12:33;1.20;;;0.82;;
21661;SDS011;10992;48.170;8.596;2023-03-20T15:15:03;1.13;;;1.02;;
21661;SDS011;10992;48.170;8.596;2023-03-20T15:17:36;1.00;;;0.85;;
21661;SDS011;10992;48.170;8.596;2023-03-20T15:20:15;1.45;;;0.88;;
21661;SDS011;10992;48.170;8.596;2023-03-20T15:22:48;1.35;;;1.23;;
21661;SDS011;10992;48.170;8.596;2023-03-20T15:25:26;2.60;;;1.27;;
21661;SDS011;10992;48.170;8.596;2023-03-20T15:27:59;2.72;;;1.13;;
21661;SDS011;10992;48.170;8.596;2023-03-20T15:30:35;1.05;;;0.70;;
21661;SDS011;10992;48.170;8.596;2023-03-20T15:33:04;2.05;;;1.23;;
21661;SDS011;10992;48.170;8.596;2023-03-20T15:35:31;2.05;;;1.25;;
21661;SDS011;10992;48.170;8.596;2023-03-20T15:38:03;3.08;;;1.02;;
21661;SDS011;10992;48.170;8.596;2023-03-20T15:40:32;1.70;;;1.08;;
21661;SDS011;10992;48.170;8.596;2023-03-20T15:43:22;1.20;;;1.10;;
21661;SDS011;10992;48.170;8.596;2023-03-20T15:45:52;1.20;;;0.80;;
21661;SDS011;10992;48.170;8.596;2023-03-20T15:48:40;0.90;;;0.60;;
21661;SDS011;10992;48.170;8.596;2023-03-20T15:51:13;2.03;;;1.00;;
21661;SDS011;10992;48.170;8.596;2023-03-20T15:53:41;0.90;;;0.70;;
21661;SDS011;10992;48.170;8.596;2023-03-20T15:56:16;1.75;;;0.80;;
21661;SDS011;10992;48.170;8.596;2023-03-20T15:58:46;1.35;;;1.00;;
21661;SDS011;10992;48.170;8.596;2023-03-20T16:01:21;1.98;;;1.13;;
21661;SDS011;10992;48.170;8.596;2023-03-20T16:03:50;1.27;;;0.90;;
21661;SDS011;10992;48.170;8.596;2023-03-20T16:06:19;2.10;;;0.98;;
21661;SDS011;10992;48.170;8.596;2023-03-20T16:08:57;1.63;;;0.90;;
21661;SDS011;10992;48.170;8.596;2023-03-20T16:11:33;2.55;;;0.93;;
21661;SDS011;10992;48.170;8.596;2023-03-20T16:14:04;1.10;;;0.70;;
21661;SDS011;10992;48.170;8.596;2023-03-20T16:16:32;0.93;;;0.70;;
21661;SDS011;10992;48.170;8.596;2023-03-20T16:19:04;1.33;;;0.90;;
21661;SDS011;10992;48.170;8.596;2023-03-20T16:21:33;1.65;;;0.82;;
21661;SDS011;10992;48.170;8.596;2023-03-20T16:24:06;2.13;;;0.90;;
21661;SDS011;10992;48.170;8.596;2023-03-20T16:26:42;1.75;;;0.70;;
21661;SDS011;10992;48.170;8.596;2023-03-20T16:29:13;1.85;;;1.00;;
21661;SDS011;10992;48.170;8.596;2023-03-20T16:31:57;2.22;;;1.10;;
21661;SDS011;10992;48.170;8.596;2023-03-20T16:34:33;1.08;;;0.75;;
21661;SDS011;10992;48.170;8.596;2023-03-20T16:37:06;2.20;;;1.70;;
21661;SDS011;10992;48.170;8.596;2023-03-20T16:39:47;1.00;;;0.82;;
21661;SDS011;10992;48.170;8.596;2023-03-20T16:42:27;1.67;;;0.88;;
21661;SDS011;10992;48.170;8.596;2023-03-20T16:44:56;3.17;;;1.70;;
21661;SDS011;10992;48.170;8.596;2023-03-20T16:47:37;4.20;;;1.50;;
21661;SDS011;10992;48.170;8.596;2023-03-20T16:50:21;1.42;;;1.00;;
21661;SDS011;10992;48.170;8.596;2023-03-20T16:53:02;1.23;;;0.90;;
21661;SDS011;10992;48.170;8.596;2023-03-20T16:55:36;2.28;;;1.48;;
21661;SDS011;10992;48.170;8.596;2023-03-20T16:58:19;1.30;;;1.20;;
21661;SDS011;10992;48.170;8.596;2023-03-20T17:00:50;1.80;;;1.13;;
21661;SDS011;10992;48.170;8.596;2023-03-20T17:03:36;3.05;;;1.20;;
21661;SDS011;10992;48.170;8.596;2023-03-20T17:09:15;3.08;;;1.52;;
21661;SDS011;10992;48.170;8.596;2023-03-20T17:11:50;2.40;;;1.70;;
21661;SDS011;10992;48.170;8.596;2023-03-20T17:15:24;1.42;;;1.30;;
21661;SDS011;10992;48.170;8.596;2023-03-20T17:17:52;2.28;;;1.58;;
21661;SDS011;10992;48.170;8.596;2023-03-20T17:20:24;3.30;;;1.98;;
21661;SDS011;10992;48.170;8.596;2023-03-20T17:22:54;2.33;;;1.73;;
21661;SDS011;10992;48.170;8.596;2023-03-20T17:25:21;3.40;;;1.30;;
21661;SDS011;10992;48.170;8.596;2023-03-20T17:27:50;1.92;;;1.45;;
21661;SDS011;10992;48.170;8.596;2023-03-20T17:30:19;9.68;;;6.45;;
21661;SDS011;10992;48.170;8.596;2023-03-20T17:32:49;21.05;;;13.32;;
21661;SDS011;10992;48.170;8.596;2023-03-20T17:35:17;9.80;;;5.78;;
21661;SDS011;10992;48.170;8.596;2023-03-20T17:37:45;3.38;;;2.72;;
21661;SDS011;10992;48.170;8.596;2023-03-20T17:40:21;3.70;;;2.50;;
21661;SDS011;10992;48.170;8.596;2023-03-20T17:42:51;2.67;;;2.10;;